sensor_id;sensor_type;location;lat;lon;timestamp;P1;durP1;ratioP1;P2;durP2;ratioP2
56599;SDS011;51832;48.152;11.530;2022-12-07T00:02:33;13.95;;;7.47;;
56599;SDS011;51832;48.152;11.530;2022-12-07T00:07:34;12.88;;;7.55;;
56599;SDS011;51832;48.152;11.530;2022-12-07T00:12:44;14.18;;;8.20;;
56599;SDS011;51832;48.152;11.530;2022-12-07T00:17:45;11.27;;;7.32;;
56599;SDS011;51832;48.152;11.530;2022-12-07T00:22:45;12.65;;;6.95;;
56599;SDS011;51832;48.152;11.530;2022-12-07T00:27:45;13.20;;;7.18;;
56599;SDS011;51832;48.152;11.530;2022-12-07T00:32:46;11.20;;;6.95;;
56599;SDS011;51832;48.152;11.530;2022-12-07T00:37:46;11.48;;;7.10;;
56599;SDS011;51832;48.152;11.530;2022-12-07T00:42:47;10.10;;;6.50;;
56599;SDS011;51832;48.152;11.530;2022-12-07T00:47:47;10.57;;;6.57;;
56599;SDS011;51832;48.152;11.530;2022-12-07T00:52:47;11.65;;;6.93;;
56599;SDS011;51832;48.152;11.530;2022-12-07T00:57:48;11.32;;;6.95;;
56599;SDS011;51832;48.152;11.530;2022-12-07T01:02:48;9.82;;;6.40;;
56599;SDS011;51832;48.152;11.530;2022-12-07T01:07:49;11.07;;;6.93;;
56599;SDS011;51832;48.152;11.530;2022-12-07T01:12:49;10.93;;;6.43;;
56599;SDS011;51832;48.152;11.530;2022-12-07T01:17:49;13.13;;;6.43;;
56599;SDS011;51832;48.152;11.530;2022-12-07T01:22:50;11.77;;;6.78;;
56599;SDS011;51832;48.152;11.530;2022-12-07T01:27:50;9.93;;;6.45;;
56599;SDS011;51832;48.152;11.530;2022-12-07T01:32:51;11.07;;;6.10;;
56599;SDS011;51832;48.152;11.530;2022-12-07T01:37:51;11.82;;;6.65;;
56599;SDS011;51832;48.152;11.530;2022-12-07T01:42:52;11.30;;;6.85;;
56599;SDS011;51832;48.152;11.530;2022-12-07T01:47:53;12.40;;;6.78;;
56599;SDS011;51832;48.152;11.530;2022-12-07T01:52:56;14.75;;;7.88;;
56599;SDS011;51832;48.152;11.530;2022-12-07T02:03:04;10.85;;;6.22;;
56599;SDS011;51832;48.152;11.530;2022-12-07T02:08:25;11.00;;;6.57;;
56599;SDS011;51832;48.152;11.530;2022-12-07T02:13:27;9.50;;;6.55;;
56599;SDS011;51832;48.152;11.530;2022-12-07T02:34:58;11.20;;;6.50;;
56599;SDS011;51832;48.152;11.530;2022-12-07T02:40:11;13.15;;;7.15;;
56599;SDS011;51832;48.152;11.530;2022-12-07T02:45:20;11.13;;;6.05;;
56599;SDS011;51832;48.152;11.530;2022-12-07T02:50:23;10.27;;;5.88;;
56599;SDS011;51832;48.152;11.530;2022-12-07T02:55:26;10.52;;;6.40;;
56599;SDS011;51832;48.152;11.530;2022-12-07T03:00:30;12.48;;;6.63;;
56599;SDS011;51832;48.152;11.530;2022-12-07T03:05:40;10.73;;;6.70;;
56599;SDS011;51832;48.152;11.530;2022-12-07T03:16:09;11.85;;;6.75;;
56599;SDS011;51832;48.152;11.530;2022-12-07T03:21:22;12.90;;;7.05;;
56599;SDS011;51832;48.152;11.530;2022-12-07T03:26:36;12.45;;;7.28;;
56599;SDS011;51832;48.152;11.530;2022-12-07T03:31:42;10.95;;;6.95;;
56599;SDS011;51832;48.152;11.530;2022-12-07T03:36:48;11.30;;;6.78;;
56599;SDS011;51832;48.152;11.530;2022-12-07T03:41:54;13.85;;;7.07;;
56599;SDS011;51832;48.152;11.530;2022-12-07T03:52:07;12.57;;;7.47;;
56599;SDS011;51832;48.152;11.530;2022-12-07T03:57:29;12.85;;;7.03;;
56599;SDS011;51832;48.152;11.530;2022-12-07T04:02:32;14.05;;;7.43;;
56599;SDS011;51832;48.152;11.530;2022-12-07T04:07:34;13.03;;;7.27;;
56599;SDS011;51832;48.152;11.530;2022-12-07T04:12:35;12.13;;;7.15;;
56599;SDS011;51832;48.152;11.530;2022-12-07T04:17:35;12.40;;;7.43;;
56599;SDS011;51832;48.152;11.530;2022-12-07T04:22:35;12.65;;;7.10;;
56599;SDS011;51832;48.152;11.530;2022-12-07T04:27:36;10.98;;;6.88;;
56599;SDS011;51832;48.152;11.530;2022-12-07T04:32:36;11.93;;;6.90;;
56599;SDS011;51832;48.152;11.530;2022-12-07T04:37:37;14.35;;;7.70;;
56599;SDS011;51832;48.152;11.530;2022-12-07T04:42:39;13.35;;;7.55;;
56599;SDS011;51832;48.152;11.530;2022-12-07T04:47:40;12.70;;;7.82;;
56599;SDS011;51832;48.152;11.530;2022-12-07T04:52:40;14.40;;;6.80;;
56599;SDS011;51832;48.152;11.530;2022-12-07T04:57:40;15.93;;;7.77;;
56599;SDS011;51832;48.152;11.530;2022-12-07T05:02:41;12.65;;;7.50;;
56599;SDS011;51832;48.152;11.530;2022-12-07T05:07:41;11.52;;;7.35;;
56599;SDS011;51832;48.152;11.530;2022-12-07T05:12:41;12.75;;;7.28;;
56599;SDS011;51832;48.152;11.530;2022-12-07T05:17:42;9.48;;;6.35;;
56599;SDS011;51832;48.152;11.530;2022-12-07T05:22:42;9.52;;;6.55;;
56599;SDS011;51832;48.152;11.530;2022-12-07T05:27:43;10.90;;;6.78;;
56599;SDS011;51832;48.152;11.530;2022-12-07T05:32:43;12.07;;;6.65;;
56599;SDS011;51832;48.152;11.530;2022-12-07T05:37:44;12.10;;;7.45;;
56599;SDS011;51832;48.152;11.530;2022-12-07T05:42:44;12.27;;;7.20;;
56599;SDS011;51832;48.152;11.530;2022-12-07T05:47:45;15.40;;;7.90;;
56599;SDS011;51832;48.152;11.530;2022-12-07T05:52:45;14.68;;;7.53;;
56599;SDS011;51832;48.152;11.530;2022-12-07T05:57:46;14.48;;;7.93;;
56599;SDS011;51832;48.152;11.530;2022-12-07T06:03:06;15.93;;;7.70;;
56599;SDS011;51832;48.152;11.530;2022-12-07T06:08:07;15.30;;;8.52;;
56599;SDS011;51832;48.152;11.530;2022-12-07T06:13:08;14.40;;;8.15;;
56599;SDS011;51832;48.152;11.530;2022-12-07T06:18:09;16.83;;;8.60;;
56599;SDS011;51832;48.152;11.530;2022-12-07T06:23:09;16.02;;;8.05;;
56599;SDS011;51832;48.152;11.530;2022-12-07T06:28:09;13.70;;;7.57;;
56599;SDS011;51832;48.152;11.530;2022-12-07T06:33:10;16.23;;;8.60;;
56599;SDS011;51832;48.152;11.530;2022-12-07T06:38:10;16.43;;;8.57;;
56599;SDS011;51832;48.152;11.530;2022-12-07T06:43:10;16.00;;;8.40;;
56599;SDS011;51832;48.152;11.530;2022-12-07T06:48:11;16.33;;;8.40;;
56599;SDS011;51832;48.152;11.530;2022-12-07T06:53:11;16.55;;;8.85;;
56599;SDS011;51832;48.152;11.530;2022-12-07T06:58:12;15.45;;;8.55;;
56599;SDS011;51832;48.152;11.530;2022-12-07T07:03:12;14.68;;;8.13;;
56599;SDS011;51832;48.152;11.530;2022-12-07T07:08:13;15.00;;;8.00;;
56599;SDS011;51832;48.152;11.530;2022-12-07T07:13:13;12.18;;;7.43;;
56599;SDS011;51832;48.152;11.530;2022-12-07T07:18:14;15.18;;;9.48;;
56599;SDS011;51832;48.152;11.530;2022-12-07T07:23:14;15.48;;;7.85;;
56599;SDS011;51832;48.152;11.530;2022-12-07T07:28:15;14.43;;;8.30;;
56599;SDS011;51832;48.152;11.530;2022-12-07T07:33:16;17.30;;;8.43;;
56599;SDS011;51832;48.152;11.530;2022-12-07T07:38:16;16.40;;;8.98;;
56599;SDS011;51832;48.152;11.530;2022-12-07T07:43:16;17.13;;;9.02;;
56599;SDS011;51832;48.152;11.530;2022-12-07T07:48:17;15.95;;;8.50;;
56599;SDS011;51832;48.152;11.530;2022-12-07T07:53:17;18.73;;;9.27;;
56599;SDS011;51832;48.152;11.530;2022-12-07T07:58:18;16.92;;;8.93;;
56599;SDS011;51832;48.152;11.530;2022-12-07T08:03:18;17.08;;;9.35;;
56599;SDS011;51832;48.152;11.530;2022-12-07T08:08:19;19.77;;;9.48;;
56599;SDS011;51832;48.152;11.530;2022-12-07T08:13:19;16.67;;;8.73;;
56599;SDS011;51832;48.152;11.530;2022-12-07T08:18:19;17.63;;;8.93;;
56599;SDS011;51832;48.152;11.530;2022-12-07T08:23:20;18.42;;;9.27;;
56599;SDS011;51832;48.152;11.530;2022-12-07T08:28:20;18.52;;;9.52;;
56599;SDS011;51832;48.152;11.530;2022-12-07T08:33:21;20.17;;;9.73;;
56599;SDS011;51832;48.152;11.530;2022-12-07T08:38:23;19.38;;;10.02;;
56599;SDS011;51832;48.152;11.530;2022-12-07T08:43:26;18.27;;;9.35;;
56599;SDS011;51832;48.152;11.530;2022-12-07T08:48:27;17.95;;;8.90;;
56599;SDS011;51832;48.152;11.530;2022-12-07T08:53:28;18.20;;;9.25;;
56599;SDS011;51832;48.152;11.530;2022-12-07T08:58:29;18.00;;;9.90;;
56599;SDS011;51832;48.152;11.530;2022-12-07T09:03:30;17.52;;;9.85;;
56599;SDS011;51832;48.152;11.530;2022-12-07T09:08:39;17.67;;;9.40;;
56599;SDS011;51832;48.152;11.530;2022-12-07T09:13:44;18.70;;;9.33;;
56599;SDS011;51832;48.152;11.530;2022-12-07T09:18:44;18.40;;;8.75;;
56599;SDS011;51832;48.152;11.530;2022-12-07T09:23:45;15.60;;;8.32;;
56599;SDS011;51832;48.152;11.530;2022-12-07T09:28:45;14.68;;;7.57;;
56599;SDS011;51832;48.152;11.530;2022-12-07T09:33:46;16.88;;;9.52;;
56599;SDS011;51832;48.152;11.530;2022-12-07T09:38:46;13.75;;;7.97;;
56599;SDS011;51832;48.152;11.530;2022-12-07T09:43:46;16.63;;;7.80;;
56599;SDS011;51832;48.152;11.530;2022-12-07T09:48:47;16.02;;;7.85;;
56599;SDS011;51832;48.152;11.530;2022-12-07T09:53:50;14.97;;;7.77;;
56599;SDS011;51832;48.152;11.530;2022-12-07T09:58:54;15.37;;;7.90;;
56599;SDS011;51832;48.152;11.530;2022-12-07T10:04:06;16.10;;;8.48;;
56599;SDS011;51832;48.152;11.530;2022-12-07T10:09:13;14.63;;;7.82;;
56599;SDS011;51832;48.152;11.530;2022-12-07T10:14:15;14.30;;;7.57;;
56599;SDS011;51832;48.152;11.530;2022-12-07T10:24:25;16.17;;;7.93;;
56599;SDS011;51832;48.152;11.530;2022-12-07T10:29:29;17.27;;;7.60;;
56599;SDS011;51832;48.152;11.530;2022-12-07T10:34:33;14.25;;;7.78;;
56599;SDS011;51832;48.152;11.530;2022-12-07T10:39:45;14.77;;;7.80;;
56599;SDS011;51832;48.152;11.530;2022-12-07T10:45:14;13.07;;;6.82;;
56599;SDS011;51832;48.152;11.530;2022-12-07T11:12:05;12.93;;;6.43;;
56599;SDS011;51832;48.152;11.530;2022-12-07T11:38:20;10.48;;;5.75;;
56599;SDS011;51832;48.152;11.530;2022-12-07T11:43:25;9.25;;;5.57;;
56599;SDS011;51832;48.152;11.530;2022-12-07T11:48:33;8.82;;;5.22;;
56599;SDS011;51832;48.152;11.530;2022-12-07T11:53:39;9.60;;;5.60;;
56599;SDS011;51832;48.152;11.530;2022-12-07T12:03:51;6.22;;;4.32;;
56599;SDS011;51832;48.152;11.530;2022-12-07T12:24:59;9.00;;;4.68;;
56599;SDS011;51832;48.152;11.530;2022-12-07T12:30:06;7.63;;;4.45;;
56599;SDS011;51832;48.152;11.530;2022-12-07T12:40:39;7.85;;;4.40;;
56599;SDS011;51832;48.152;11.530;2022-12-07T12:45:40;11.10;;;5.57;;
56599;SDS011;51832;48.152;11.530;2022-12-07T12:50:40;11.05;;;5.22;;
56599;SDS011;51832;48.152;11.530;2022-12-07T13:00:41;11.60;;;6.00;;
56599;SDS011;51832;48.152;11.530;2022-12-07T13:05:42;10.27;;;5.30;;
56599;SDS011;51832;48.152;11.530;2022-12-07T13:10:46;10.00;;;5.30;;
56599;SDS011;51832;48.152;11.530;2022-12-07T13:15:50;10.30;;;4.93;;
56599;SDS011;51832;48.152;11.530;2022-12-07T13:20:53;9.02;;;5.45;;
56599;SDS011;51832;48.152;11.530;2022-12-07T13:31:03;13.23;;;5.83;;
56599;SDS011;51832;48.152;11.530;2022-12-07T13:36:18;11.52;;;5.35;;
56599;SDS011;51832;48.152;11.530;2022-12-07T13:41:22;10.63;;;5.30;;
56599;SDS011;51832;48.152;11.530;2022-12-07T13:46:35;12.05;;;5.57;;
56599;SDS011;51832;48.152;11.530;2022-12-07T13:51:42;10.65;;;6.35;;
56599;SDS011;51832;48.152;11.530;2022-12-07T13:56:42;10.45;;;5.65;;
56599;SDS011;51832;48.152;11.530;2022-12-07T14:01:44;10.52;;;5.38;;
56599;SDS011;51832;48.152;11.530;2022-12-07T14:06:49;11.13;;;5.30;;
56599;SDS011;51832;48.152;11.530;2022-12-07T14:11:51;9.00;;;5.20;;
56599;SDS011;51832;48.152;11.530;2022-12-07T14:22:20;8.30;;;4.97;;
56599;SDS011;51832;48.152;11.530;2022-12-07T14:27:24;5.43;;;3.80;;
56599;SDS011;51832;48.152;11.530;2022-12-07T14:32:34;4.35;;;3.13;;
56599;SDS011;51832;48.152;11.530;2022-12-07T14:37:37;7.20;;;3.70;;
56599;SDS011;51832;48.152;11.530;2022-12-07T14:42:39;6.40;;;3.42;;
56599;SDS011;51832;48.152;11.530;2022-12-07T14:47:40;6.50;;;3.92;;
56599;SDS011;51832;48.152;11.530;2022-12-07T14:52:40;5.07;;;3.72;;
56599;SDS011;51832;48.152;11.530;2022-12-07T14:57:43;6.57;;;4.03;;
56599;SDS011;51832;48.152;11.530;2022-12-07T15:02:44;7.30;;;4.15;;
56599;SDS011;51832;48.152;11.530;2022-12-07T15:07:46;6.47;;;4.07;;
56599;SDS011;51832;48.152;11.530;2022-12-07T15:12:48;10.35;;;4.93;;
56599;SDS011;51832;48.152;11.530;2022-12-07T15:17:48;9.35;;;4.97;;
56599;SDS011;51832;48.152;11.530;2022-12-07T15:22:49;9.05;;;5.15;;
56599;SDS011;51832;48.152;11.530;2022-12-07T15:27:49;11.10;;;5.63;;
56599;SDS011;51832;48.152;11.530;2022-12-07T15:32:53;8.30;;;4.68;;
56599;SDS011;51832;48.152;11.530;2022-12-07T15:37:54;9.60;;;4.95;;
56599;SDS011;51832;48.152;11.530;2022-12-07T15:42:55;9.88;;;5.45;;
56599;SDS011;51832;48.152;11.530;2022-12-07T15:47:55;16.60;;;7.07;;
56599;SDS011;51832;48.152;11.530;2022-12-07T15:52:55;10.75;;;5.68;;
56599;SDS011;51832;48.152;11.530;2022-12-07T15:57:56;12.70;;;5.80;;
56599;SDS011;51832;48.152;11.530;2022-12-07T16:02:56;11.43;;;6.35;;
56599;SDS011;51832;48.152;11.530;2022-12-07T16:07:57;10.45;;;5.80;;
56599;SDS011;51832;48.152;11.530;2022-12-07T16:12:57;11.25;;;6.35;;
56599;SDS011;51832;48.152;11.530;2022-12-07T16:17:58;11.48;;;6.18;;
56599;SDS011;51832;48.152;11.530;2022-12-07T16:22:58;9.90;;;6.10;;
56599;SDS011;51832;48.152;11.530;2022-12-07T16:27:59;11.85;;;6.80;;
56599;SDS011;51832;48.152;11.530;2022-12-07T16:32:59;10.63;;;6.43;;
56599;SDS011;51832;48.152;11.530;2022-12-07T16:37:59;11.98;;;6.60;;
56599;SDS011;51832;48.152;11.530;2022-12-07T16:43:00;12.45;;;6.38;;
56599;SDS011;51832;48.152;11.530;2022-12-07T16:48:00;11.88;;;6.25;;
56599;SDS011;51832;48.152;11.530;2022-12-07T16:53:01;14.00;;;6.93;;
56599;SDS011;51832;48.152;11.530;2022-12-07T16:58:01;13.32;;;7.47;;
56599;SDS011;51832;48.152;11.530;2022-12-07T17:03:01;11.68;;;6.45;;
56599;SDS011;51832;48.152;11.530;2022-12-07T17:08:03;12.15;;;6.35;;
56599;SDS011;51832;48.152;11.530;2022-12-07T17:13:04;12.02;;;6.53;;
56599;SDS011;51832;48.152;11.530;2022-12-07T17:18:26;10.88;;;6.30;;
56599;SDS011;51832;48.152;11.530;2022-12-07T17:23:28;13.55;;;6.63;;
56599;SDS011;51832;48.152;11.530;2022-12-07T17:28:28;13.63;;;7.30;;
56599;SDS011;51832;48.152;11.530;2022-12-07T17:33:29;14.05;;;7.65;;
56599;SDS011;51832;48.152;11.530;2022-12-07T17:38:30;11.75;;;6.13;;
56599;SDS011;51832;48.152;11.530;2022-12-07T17:43:30;16.83;;;9.13;;
56599;SDS011;51832;48.152;11.530;2022-12-07T17:48:30;17.13;;;7.85;;
56599;SDS011;51832;48.152;11.530;2022-12-07T17:53:31;12.60;;;7.68;;
56599;SDS011;51832;48.152;11.530;2022-12-07T17:58:31;13.45;;;8.02;;
56599;SDS011;51832;48.152;11.530;2022-12-07T18:03:32;13.75;;;7.68;;
56599;SDS011;51832;48.152;11.530;2022-12-07T18:08:35;18.05;;;8.45;;
56599;SDS011;51832;48.152;11.530;2022-12-07T18:13:37;16.38;;;7.65;;
56599;SDS011;51832;48.152;11.530;2022-12-07T18:18:38;14.35;;;7.10;;
56599;SDS011;51832;48.152;11.530;2022-12-07T18:23:40;16.10;;;7.43;;
56599;SDS011;51832;48.152;11.530;2022-12-07T18:28:44;13.68;;;7.45;;
56599;SDS011;51832;48.152;11.530;2022-12-07T18:33:45;15.55;;;7.30;;
56599;SDS011;51832;48.152;11.530;2022-12-07T18:38:47;15.45;;;8.05;;
56599;SDS011;51832;48.152;11.530;2022-12-07T18:43:47;15.65;;;7.63;;
56599;SDS011;51832;48.152;11.530;2022-12-07T18:48:48;14.15;;;7.55;;
56599;SDS011;51832;48.152;11.530;2022-12-07T18:53:51;11.60;;;7.13;;
56599;SDS011;51832;48.152;11.530;2022-12-07T18:58:55;15.85;;;7.35;;
56599;SDS011;51832;48.152;11.530;2022-12-07T19:04:16;15.85;;;8.20;;
56599;SDS011;51832;48.152;11.530;2022-12-07T19:09:17;14.30;;;8.25;;
56599;SDS011;51832;48.152;11.530;2022-12-07T19:14:21;19.42;;;7.85;;
56599;SDS011;51832;48.152;11.530;2022-12-07T19:19:27;21.48;;;9.73;;
56599;SDS011;51832;48.152;11.530;2022-12-07T19:24:33;16.52;;;8.68;;
56599;SDS011;51832;48.152;11.530;2022-12-07T19:29:34;18.05;;;8.75;;
56599;SDS011;51832;48.152;11.530;2022-12-07T19:34:35;15.32;;;8.52;;
56599;SDS011;51832;48.152;11.530;2022-12-07T19:39:37;15.73;;;8.25;;
56599;SDS011;51832;48.152;11.530;2022-12-07T19:44:42;16.58;;;8.68;;
56599;SDS011;51832;48.152;11.530;2022-12-07T19:49:43;15.05;;;8.55;;
56599;SDS011;51832;48.152;11.530;2022-12-07T19:54:44;18.52;;;9.60;;
56599;SDS011;51832;48.152;11.530;2022-12-07T19:59:45;18.35;;;9.15;;
56599;SDS011;51832;48.152;11.530;2022-12-07T20:04:46;19.20;;;8.77;;
56599;SDS011;51832;48.152;11.530;2022-12-07T20:09:46;15.43;;;8.90;;
56599;SDS011;51832;48.152;11.530;2022-12-07T20:14:47;18.52;;;8.75;;
56599;SDS011;51832;48.152;11.530;2022-12-07T20:19:47;15.98;;;8.40;;
56599;SDS011;51832;48.152;11.530;2022-12-07T20:24:48;18.63;;;9.77;;
56599;SDS011;51832;48.152;11.530;2022-12-07T20:29:49;21.75;;;10.07;;
56599;SDS011;51832;48.152;11.530;2022-12-07T20:34:49;19.70;;;10.27;;
56599;SDS011;51832;48.152;11.530;2022-12-07T20:39:50;21.50;;;9.38;;
56599;SDS011;51832;48.152;11.530;2022-12-07T20:44:50;17.25;;;8.77;;
56599;SDS011;51832;48.152;11.530;2022-12-07T20:49:51;18.35;;;9.55;;
56599;SDS011;51832;48.152;11.530;2022-12-07T20:54:52;17.45;;;8.93;;
56599;SDS011;51832;48.152;11.530;2022-12-07T20:59:52;19.15;;;8.85;;
56599;SDS011;51832;48.152;11.530;2022-12-07T21:04:53;16.80;;;8.50;;
56599;SDS011;51832;48.152;11.530;2022-12-07T21:09:53;19.80;;;9.73;;
56599;SDS011;51832;48.152;11.530;2022-12-07T21:14:53;18.75;;;9.30;;
56599;SDS011;51832;48.152;11.530;2022-12-07T21:19:54;19.00;;;8.88;;
56599;SDS011;51832;48.152;11.530;2022-12-07T21:24:55;18.02;;;8.68;;
56599;SDS011;51832;48.152;11.530;2022-12-07T21:29:55;18.63;;;8.73;;
56599;SDS011;51832;48.152;11.530;2022-12-07T21:34:56;15.70;;;8.43;;
56599;SDS011;51832;48.152;11.530;2022-12-07T21:39:56;17.45;;;8.55;;
56599;SDS011;51832;48.152;11.530;2022-12-07T21:44:56;17.45;;;7.68;;
56599;SDS011;51832;48.152;11.530;2022-12-07T21:49:57;16.10;;;9.07;;
56599;SDS011;51832;48.152;11.530;2022-12-07T21:54:57;18.98;;;8.95;;
56599;SDS011;51832;48.152;11.530;2022-12-07T21:59:58;16.63;;;8.38;;
56599;SDS011;51832;48.152;11.530;2022-12-07T22:04:58;18.88;;;8.60;;
56599;SDS011;51832;48.152;11.530;2022-12-07T22:09:58;15.68;;;8.65;;
56599;SDS011;51832;48.152;11.530;2022-12-07T22:14:59;17.70;;;8.45;;
56599;SDS011;51832;48.152;11.530;2022-12-07T22:20:05;21.45;;;9.48;;
56599;SDS011;51832;48.152;11.530;2022-12-07T22:25:07;19.35;;;8.73;;
56599;SDS011;51832;48.152;11.530;2022-12-07T22:30:09;14.85;;;8.10;;
56599;SDS011;51832;48.152;11.530;2022-12-07T22:35:11;15.57;;;8.68;;
56599;SDS011;51832;48.152;11.530;2022-12-07T22:40:11;16.05;;;8.60;;
56599;SDS011;51832;48.152;11.530;2022-12-07T22:45:12;16.98;;;8.60;;
56599;SDS011;51832;48.152;11.530;2022-12-07T22:50:12;16.48;;;8.60;;
56599;SDS011;51832;48.152;11.530;2022-12-07T22:55:13;18.48;;;9.35;;
56599;SDS011;51832;48.152;11.530;2022-12-07T23:00:13;17.45;;;8.88;;
56599;SDS011;51832;48.152;11.530;2022-12-07T23:05:14;19.98;;;8.95;;
56599;SDS011;51832;48.152;11.530;2022-12-07T23:10:15;19.90;;;9.05;;
56599;SDS011;51832;48.152;11.530;2022-12-07T23:15:15;17.58;;;8.45;;
56599;SDS011;51832;48.152;11.530;2022-12-07T23:20:16;18.85;;;9.40;;
56599;SDS011;51832;48.152;11.530;2022-12-07T23:25:16;19.35;;;9.43;;
56599;SDS011;51832;48.152;11.530;2022-12-07T23:30:17;21.67;;;10.20;;
56599;SDS011;51832;48.152;11.530;2022-12-07T23:35:17;17.20;;;9.02;;
56599;SDS011;51832;48.152;11.530;2022-12-07T23:40:18;17.85;;;9.02;;
56599;SDS011;51832;48.152;11.530;2022-12-07T23:45:18;17.27;;;8.93;;
56599;SDS011;51832;48.152;11.530;2022-12-07T23:50:18;17.83;;;8.40;;
56599;SDS011;51832;48.152;11.530;2022-12-07T23:55:19;18.50;;;9.23;;
